createdAt,value
2019-02-22T00:00:52.644Z,21.01
2019-02-22T00:01:52.689Z,20.93
2019-02-22T00:02:52.728Z,20.91
2019-02-22T00:03:52.752Z,20.95
2019-02-22T00:04:52.820Z,21.11
2019-02-22T00:05:52.845Z,20.98
2019-02-22T00:06:52.901Z,21.06
2019-02-22T00:07:52.946Z,20.99
2019-02-22T00:08:53.023Z,21.13
2019-02-22T00:09:53.049Z,21.09
2019-02-22T00:10:53.071Z,21.02
2019-02-22T00:11:53.112Z,21.02
2019-02-22T00:12:53.178Z,21.11
2019-02-22T00:13:53.258Z,21.06
2019-02-22T00:14:53.278Z,21.11
2019-02-22T00:15:53.343Z,21.02
2019-02-22T00:16:53.380Z,21.09
2019-02-22T00:17:53.413Z,21.11
2019-02-22T00:18:53.432Z,21.11
2019-02-22T00:19:53.540Z,21.19
2019-02-22T00:20:53.551Z,21.06
2019-02-22T00:21:53.615Z,21.04
2019-02-22T00:22:53.615Z,20.99
2019-02-22T00:23:53.686Z,21.04
2019-02-22T00:24:53.739Z,21.08
2019-02-22T00:25:53.766Z,21.02
2019-02-22T00:26:53.825Z,21.01
2019-02-22T00:27:53.876Z,21.08
2019-02-22T00:28:53.920Z,20.99
2019-02-22T00:29:53.967Z,21.02
2019-02-22T00:30:54.008Z,21.05
2019-02-22T00:31:54.032Z,20.99
2019-02-22T00:32:54.110Z,21.04
2019-02-22T00:33:54.124Z,21.06
2019-02-22T00:34:54.212Z,20.99
2019-02-22T00:35:54.308Z,21.01
2019-02-22T00:36:54.315Z,20.96
2019-02-22T00:37:54.311Z,21.05
2019-02-22T00:38:54.381Z,21.06
2019-02-22T00:39:54.433Z,20.91
2019-02-22T00:40:54.472Z,20.93
2019-02-22T00:41:54.510Z,20.90
2019-02-22T00:42:54.575Z,20.99
2019-02-22T00:43:54.626Z,20.99
2019-02-22T00:44:54.631Z,21.05
2019-02-22T00:45:54.699Z,21.05
2019-02-22T00:46:54.750Z,20.96
2019-02-22T00:47:54.792Z,20.96
2019-02-22T00:48:54.843Z,21.11
2019-02-22T00:49:54.892Z,21.01
2019-02-22T00:50:54.923Z,20.95
2019-02-22T00:51:55.026Z,20.99
2019-02-22T00:52:55.058Z,20.93
2019-02-22T00:53:55.071Z,20.98
2019-02-22T00:54:55.165Z,21.04
2019-02-22T00:55:55.157Z,21.08
2019-02-22T00:56:55.210Z,21.02
2019-02-22T00:57:55.260Z,21.04
2019-02-22T00:58:55.299Z,21.04
2019-02-22T00:59:55.411Z,21.02
2019-02-22T01:00:55.407Z,21.08
2019-02-22T01:01:55.473Z,21.08
2019-02-22T01:02:55.472Z,21.04
2019-02-22T01:03:55.548Z,21.01
2019-02-22T01:04:55.594Z,21.09
2019-02-22T01:05:55.647Z,21.08
2019-02-22T01:06:55.680Z,21.11
2019-02-22T01:07:55.727Z,21.13
2019-02-22T01:08:55.762Z,21.11
2019-02-22T01:09:55.854Z,21.08
2019-02-22T01:10:55.849Z,21.19
2019-02-22T01:11:55.898Z,21.11
2019-02-22T01:12:55.925Z,21.20
2019-02-22T01:13:55.999Z,21.20
2019-02-22T01:14:56.060Z,21.08
2019-02-22T01:15:56.090Z,21.13
2019-02-22T01:16:57.348Z,21.13
2019-02-22T01:17:56.204Z,21.11
2019-02-22T01:18:56.236Z,21.14
2019-02-22T01:19:56.272Z,21.17
2019-02-22T01:20:56.336Z,21.11
2019-02-22T01:21:56.351Z,21.11
2019-02-22T01:22:56.422Z,21.14
2019-02-22T01:23:56.474Z,21.09
2019-02-22T01:24:56.537Z,21.08
2019-02-22T01:25:56.570Z,21.13
2019-02-22T01:26:56.593Z,21.09
2019-02-22T01:27:56.638Z,21.13
2019-02-22T01:28:56.697Z,21.08
2019-02-22T01:29:56.752Z,21.05
2019-02-22T01:30:56.780Z,21.04
2019-02-22T01:31:56.831Z,21.06
2019-02-22T01:32:56.863Z,21.06
2019-02-22T01:33:56.910Z,21.11
2019-02-22T01:34:56.968Z,21.05
2019-02-22T01:35:57.010Z,21.19
2019-02-22T01:36:57.051Z,21.08
2019-02-22T01:37:57.117Z,21.08
2019-02-22T01:38:57.174Z,21.13
2019-02-22T01:39:57.194Z,21.09
2019-02-22T01:40:57.228Z,21.08
2019-02-22T01:41:57.293Z,21.05
2019-02-22T01:42:57.371Z,21.13
2019-02-22T01:43:57.381Z,21.09
2019-02-22T01:44:57.430Z,21.13
2019-02-22T01:45:57.456Z,21.13
2019-02-22T01:46:57.530Z,21.19
2019-02-22T01:47:57.573Z,21.08
2019-02-22T01:48:57.593Z,21.04
2019-02-22T01:49:57.661Z,21.08
2019-02-22T01:50:57.718Z,21.08
2019-02-22T01:51:57.772Z,21.11
2019-02-22T01:52:57.797Z,21.08
2019-02-22T01:53:57.848Z,21.13
2019-02-22T01:54:57.899Z,21.08
2019-02-22T01:55:57.975Z,21.17
2019-02-22T01:56:57.997Z,21.11
2019-02-22T01:57:58.034Z,21.14
2019-02-22T01:58:58.094Z,21.05
2019-02-22T01:59:58.097Z,21.08
2019-02-22T02:00:58.172Z,21.06
2019-02-22T02:01:58.225Z,21.08
2019-02-22T02:02:58.258Z,21.24
2019-02-22T02:03:58.292Z,21.09
2019-02-22T02:04:58.344Z,21.13
2019-02-22T02:05:58.380Z,21.13
2019-02-22T02:06:58.454Z,21.16
2019-02-22T02:07:58.479Z,21.13
2019-02-22T02:08:58.590Z,21.13
2019-02-22T02:09:58.573Z,21.17
2019-02-22T02:10:58.617Z,21.16
2019-02-22T02:11:58.678Z,21.19
2019-02-22T02:12:58.714Z,21.17
2019-02-22T02:13:58.780Z,21.17
2019-02-22T02:14:58.890Z,21.09
2019-02-22T02:15:58.849Z,21.16
2019-02-22T02:16:58.913Z,21.19
2019-02-22T02:17:58.951Z,21.13
2019-02-22T02:18:59.006Z,21.20
2019-02-22T02:19:59.061Z,21.21
2019-02-22T02:20:59.136Z,21.14
2019-02-22T02:21:59.133Z,21.16
2019-02-22T02:22:59.176Z,21.21
2019-02-22T02:23:59.225Z,21.19
2019-02-22T02:24:59.293Z,21.16
2019-02-22T02:25:59.313Z,21.17
2019-02-22T02:26:59.412Z,21.11
2019-02-22T02:27:59.395Z,21.17
2019-02-22T02:28:59.446Z,21.20
2019-02-22T02:29:59.515Z,21.23
2019-02-22T02:30:59.556Z,21.13
2019-02-22T02:31:59.740Z,21.14
2019-02-22T02:32:59.659Z,21.19
2019-02-22T02:33:59.736Z,21.19
2019-02-22T02:34:59.749Z,21.16
2019-02-22T02:35:59.781Z,21.20
2019-02-22T02:36:59.863Z,21.24
2019-02-22T02:37:59.883Z,21.32
2019-02-22T02:38:59.916Z,21.29
2019-02-22T02:40:00.400Z,21.26
2019-02-22T02:41:09.938Z,21.27
2019-02-22T02:42:00.069Z,21.24
2019-02-22T02:43:00.106Z,21.29
2019-02-22T02:44:00.165Z,21.26
2019-02-22T02:45:00.537Z,21.34
2019-02-22T02:46:00.264Z,21.26
2019-02-22T02:47:00.297Z,21.20
2019-02-22T02:48:00.377Z,21.21
2019-02-22T02:49:00.431Z,21.30
2019-02-22T02:50:00.439Z,21.23
2019-02-22T02:51:00.492Z,21.30
2019-02-22T02:52:00.562Z,21.27
2019-02-22T02:53:00.583Z,21.32
2019-02-22T02:54:00.623Z,21.24
2019-02-22T02:55:00.675Z,21.23
2019-02-22T02:56:00.784Z,21.27
2019-02-22T02:57:00.750Z,21.27
2019-02-22T02:58:00.807Z,21.21
2019-02-22T02:59:00.863Z,21.29
2019-02-22T03:00:00.898Z,21.34
2019-02-22T03:01:00.952Z,21.29
2019-02-22T03:02:01.007Z,21.30
2019-02-22T03:03:01.051Z,21.23
2019-02-22T03:04:01.095Z,21.29
2019-02-22T03:05:01.151Z,21.24
2019-02-22T03:06:01.179Z,21.29
2019-02-22T03:07:01.221Z,21.27
2019-02-22T03:08:01.265Z,21.27
2019-02-22T03:09:01.335Z,21.24
2019-02-22T03:10:01.375Z,21.27
2019-02-22T03:11:01.416Z,21.27
2019-02-22T03:12:01.463Z,21.27
2019-02-22T03:13:01.512Z,21.29
2019-02-22T03:14:01.566Z,21.27
2019-02-22T03:15:01.600Z,21.26
2019-02-22T03:16:01.655Z,21.30
2019-02-22T03:17:01.776Z,21.19
2019-02-22T03:18:01.718Z,21.32
2019-02-22T03:19:01.782Z,21.30
2019-02-22T03:20:01.821Z,21.23
2019-02-22T03:21:01.916Z,21.30
2019-02-22T03:22:01.909Z,21.21
2019-02-22T03:23:01.978Z,21.30
2019-02-22T03:24:02.015Z,21.30
2019-02-22T03:25:02.058Z,21.30
2019-02-22T03:26:02.103Z,21.23
2019-02-22T03:27:02.163Z,21.27
2019-02-22T03:28:02.209Z,21.29
2019-02-22T03:29:02.226Z,21.14
2019-02-22T03:30:02.294Z,21.29
2019-02-22T03:31:02.346Z,21.21
2019-02-22T03:32:02.405Z,21.24
2019-02-22T03:33:02.439Z,21.23
2019-02-22T03:34:02.509Z,21.24
2019-02-22T03:35:02.525Z,21.27
2019-02-22T03:36:02.588Z,21.27
2019-02-22T03:37:02.631Z,21.29
2019-02-22T03:38:02.669Z,21.24
2019-02-22T03:39:02.685Z,21.24
2019-02-22T03:40:02.740Z,21.13
2019-02-22T03:41:02.795Z,21.24
2019-02-22T03:42:02.850Z,21.26
2019-02-22T03:43:02.889Z,21.21
2019-02-22T03:44:02.918Z,21.26
2019-02-22T03:45:02.991Z,21.21
2019-02-22T03:46:03.083Z,21.23
2019-02-22T03:47:03.076Z,21.26
2019-02-22T03:48:03.120Z,21.21
2019-02-22T03:49:03.178Z,21.09
2019-02-22T03:50:03.223Z,21.24
2019-02-22T03:51:03.260Z,21.21
2019-02-22T03:52:03.327Z,21.20
2019-02-22T03:53:03.343Z,21.19
2019-02-22T03:54:03.417Z,21.14
2019-02-22T03:55:03.451Z,21.11
2019-02-22T03:56:03.558Z,21.11
2019-02-22T03:57:03.553Z,21.24
2019-02-22T03:58:03.587Z,21.23
2019-02-22T03:59:03.626Z,21.23
2019-02-22T04:00:03.674Z,21.23
2019-02-22T04:01:03.731Z,21.30
2019-02-22T04:02:03.774Z,21.29
2019-02-22T04:03:03.861Z,21.32
2019-02-22T04:04:03.857Z,21.35
2019-02-22T04:05:03.900Z,21.36
2019-02-22T04:06:03.970Z,21.36
2019-02-22T04:07:04.007Z,21.35
2019-02-22T04:08:04.034Z,21.41
2019-02-22T04:09:04.104Z,21.39
2019-02-22T04:10:04.160Z,21.30
2019-02-22T04:11:04.182Z,21.34
2019-02-22T04:12:04.229Z,21.35
2019-02-22T04:13:04.276Z,21.30
2019-02-22T04:14:04.329Z,21.32
2019-02-22T04:15:04.392Z,21.36
2019-02-22T04:16:04.406Z,21.42
2019-02-22T04:17:04.463Z,21.36
2019-02-22T04:18:04.515Z,21.38
2019-02-22T04:19:04.551Z,21.38
2019-02-22T04:20:04.635Z,21.38
2019-02-22T04:21:04.792Z,21.29
2019-02-22T04:22:04.691Z,21.36
2019-02-22T04:23:04.718Z,21.24
2019-02-22T04:24:04.787Z,21.35
2019-02-22T04:25:04.871Z,21.23
2019-02-22T04:26:04.878Z,21.35
2019-02-22T04:27:04.929Z,21.38
2019-02-22T04:28:04.975Z,21.38
2019-02-22T04:29:05.036Z,21.32
2019-02-22T04:30:05.086Z,21.35
2019-02-22T04:31:05.108Z,21.36
2019-02-22T04:32:05.175Z,21.42
2019-02-22T04:33:05.205Z,21.42
2019-02-22T04:34:05.259Z,21.41
2019-02-22T04:35:05.335Z,21.42
2019-02-22T04:36:05.344Z,21.45
2019-02-22T04:37:05.399Z,21.39
2019-02-22T04:38:05.432Z,21.51
2019-02-22T04:39:05.492Z,21.42
2019-02-22T04:40:05.518Z,21.42
2019-02-22T04:41:05.623Z,21.42
2019-02-22T04:42:05.620Z,21.44
2019-02-22T04:43:05.702Z,21.30
2019-02-22T04:44:05.703Z,21.39
2019-02-22T04:45:05.804Z,21.41
2019-02-22T04:46:05.851Z,21.41
2019-02-22T04:47:05.866Z,21.41
2019-02-22T04:48:05.918Z,21.44
2019-02-22T04:49:05.945Z,21.32
2019-02-22T04:50:05.997Z,21.45
2019-02-22T04:51:06.030Z,21.41
2019-02-22T04:52:06.070Z,21.36
2019-02-22T04:53:06.126Z,21.36
2019-02-22T04:54:06.176Z,21.36
2019-02-22T04:55:06.210Z,21.45
2019-02-22T04:56:06.258Z,21.46
2019-02-22T04:57:06.319Z,21.44
2019-02-22T04:58:06.353Z,21.45
2019-02-22T04:59:06.385Z,21.44
2019-02-22T05:00:06.445Z,21.50
2019-02-22T05:01:06.476Z,21.46
2019-02-22T05:02:06.521Z,21.44
2019-02-22T05:03:06.592Z,21.41
2019-02-22T05:04:06.665Z,21.45
2019-02-22T05:05:06.687Z,21.50
2019-02-22T05:06:06.712Z,21.50
2019-02-22T05:07:06.756Z,21.50
2019-02-22T05:08:06.814Z,21.51
2019-02-22T05:09:06.836Z,21.53
2019-02-22T05:10:06.897Z,21.48
2019-02-22T05:11:06.959Z,21.54
2019-02-22T05:12:10.755Z,21.53
2019-02-22T05:13:07.041Z,21.53
2019-02-22T05:14:07.084Z,21.53
2019-02-22T05:15:12.650Z,21.50
2019-02-22T05:16:07.182Z,21.53
2019-02-22T05:17:07.229Z,21.48
2019-02-22T05:18:07.283Z,21.56
2019-02-22T05:19:07.300Z,21.51
2019-02-22T05:20:07.360Z,21.53
2019-02-22T05:21:07.413Z,21.46
2019-02-22T05:22:07.458Z,21.41
2019-02-22T05:23:07.723Z,21.41
2019-02-22T05:24:07.523Z,21.41
2019-02-22T05:25:07.631Z,21.50
2019-02-22T05:26:07.633Z,21.44
2019-02-22T05:27:07.685Z,21.45
2019-02-22T05:28:07.747Z,21.46
2019-02-22T05:29:07.773Z,21.42
2019-02-22T05:30:07.885Z,21.45
2019-02-22T05:31:07.861Z,21.50
2019-02-22T05:32:07.911Z,21.54
2019-02-22T05:33:07.960Z,21.51
2019-02-22T05:34:08.022Z,21.46
2019-02-22T05:35:08.098Z,21.46
2019-02-22T05:36:08.121Z,21.51
2019-02-22T05:37:08.120Z,21.48
2019-02-22T05:38:08.171Z,21.38
2019-02-22T05:39:18.488Z,21.53
2019-02-22T05:40:08.271Z,21.46
2019-02-22T05:41:08.317Z,21.42
2019-02-22T05:42:08.377Z,21.45
2019-02-22T05:43:08.422Z,21.54
2019-02-22T05:44:08.468Z,21.42
2019-02-22T05:45:08.554Z,21.41
2019-02-22T05:46:08.556Z,21.35
2019-02-22T05:47:08.606Z,21.27
2019-02-22T05:48:08.655Z,21.30
2019-02-22T05:49:08.691Z,21.36
2019-02-22T05:50:08.735Z,21.30
2019-02-22T05:51:08.790Z,21.35
2019-02-22T05:52:08.833Z,21.38
2019-02-22T05:53:08.859Z,21.34
2019-02-22T05:54:08.956Z,21.35
2019-02-22T05:55:08.978Z,21.39
2019-02-22T05:56:09.001Z,21.30
2019-02-22T05:57:09.056Z,21.39
2019-02-22T05:58:09.098Z,21.36
2019-02-22T05:59:09.154Z,21.32
2019-02-22T06:00:09.195Z,21.35
2019-02-22T06:01:09.248Z,21.38
2019-02-22T06:02:09.311Z,21.34
2019-02-22T06:03:09.321Z,21.36
2019-02-22T06:04:09.396Z,21.36
2019-02-22T06:05:09.413Z,21.36
2019-02-22T06:06:09.463Z,21.35
2019-02-22T06:07:09.561Z,21.30
2019-02-22T06:08:09.586Z,21.36
2019-02-22T06:09:09.635Z,21.38
2019-02-22T06:10:09.661Z,21.27
2019-02-22T06:11:09.721Z,21.32
2019-02-22T06:12:09.747Z,21.32
2019-02-22T06:13:09.803Z,21.30
2019-02-22T06:14:09.829Z,21.27
2019-02-22T06:15:09.878Z,21.26
2019-02-22T06:16:09.945Z,21.30
2019-02-22T06:17:14.672Z,21.27
2019-02-22T06:18:10.074Z,21.24
2019-02-22T06:19:10.087Z,21.27
2019-02-22T06:20:10.142Z,21.29
2019-02-22T06:21:10.175Z,21.29
2019-02-22T06:22:10.206Z,21.27
2019-02-22T06:23:10.247Z,21.21
2019-02-22T06:24:10.294Z,21.21
2019-02-22T06:25:10.389Z,21.23
2019-02-22T06:26:10.405Z,21.20
2019-02-22T06:27:10.437Z,21.24
2019-02-22T06:28:10.489Z,21.20
2019-02-22T06:29:10.530Z,21.21
2019-02-22T06:30:10.574Z,21.24
2019-02-22T06:31:10.633Z,21.23
2019-02-22T06:32:10.685Z,21.23
2019-02-22T06:33:10.704Z,21.29
2019-02-22T06:34:10.738Z,21.27
2019-02-22T06:35:10.818Z,21.26
2019-02-22T06:36:10.872Z,21.24
2019-02-22T06:37:10.895Z,21.16
2019-02-22T06:38:10.986Z,21.17
2019-02-22T06:39:11.006Z,21.17
2019-02-22T06:40:11.042Z,21.14
2019-02-22T06:41:11.099Z,21.21
2019-02-22T06:42:11.285Z,21.13
2019-02-22T06:43:11.182Z,21.27
2019-02-22T06:44:11.981Z,21.26
2019-02-22T06:45:11.318Z,21.21
2019-02-22T06:46:11.321Z,21.21
2019-02-22T06:47:11.372Z,21.24
2019-02-22T06:48:11.408Z,21.20
2019-02-22T06:49:11.468Z,21.23
2019-02-22T06:50:11.499Z,21.21
2019-02-22T06:51:11.522Z,21.23
2019-02-22T06:52:11.586Z,21.21
2019-02-22T06:53:11.638Z,21.20
2019-02-22T06:54:11.688Z,21.24
2019-02-22T06:55:11.818Z,21.24
2019-02-22T06:56:11.816Z,21.20
2019-02-22T06:57:11.869Z,21.21
2019-02-22T06:58:11.918Z,21.16
2019-02-22T06:59:11.923Z,21.17
2019-02-22T07:00:11.955Z,21.17
2019-02-22T07:01:12.015Z,21.14
2019-02-22T07:02:12.050Z,21.16
2019-02-22T07:03:12.100Z,21.11
2019-02-22T07:04:12.123Z,21.13
2019-02-22T07:05:12.218Z,21.13
2019-02-22T07:06:12.203Z,21.09
2019-02-22T07:07:12.273Z,21.11
2019-02-22T07:08:12.346Z,21.14
2019-02-22T07:09:12.374Z,21.09
2019-02-22T07:10:12.391Z,21.14
2019-02-22T07:11:12.464Z,21.11
2019-02-22T07:12:12.538Z,21.17
2019-02-22T07:13:12.554Z,21.13
2019-02-22T07:14:12.598Z,21.13
2019-02-22T07:15:12.639Z,21.09
2019-02-22T07:16:12.688Z,21.13
2019-02-22T07:17:12.728Z,21.13
2019-02-22T07:18:12.792Z,21.16
2019-02-22T07:19:12.846Z,21.09
2019-02-22T07:20:12.901Z,21.09
2019-02-22T07:21:13.047Z,21.13
2019-02-22T07:22:12.977Z,21.08
2019-02-22T07:23:13.027Z,21.14
2019-02-22T07:24:13.066Z,21.08
2019-02-22T07:25:13.145Z,21.13
2019-02-22T07:26:13.218Z,21.11
2019-02-22T07:27:13.204Z,21.13
2019-02-22T07:28:13.245Z,21.14
2019-02-22T07:29:13.263Z,21.11
2019-02-22T07:30:13.310Z,21.17
2019-02-22T07:31:13.456Z,21.14
2019-02-22T07:32:13.414Z,21.11
2019-02-22T07:33:13.580Z,21.09
2019-02-22T07:34:13.530Z,21.16
2019-02-22T07:35:14.436Z,21.14
2019-02-22T07:36:13.649Z,21.11
2019-02-22T07:37:13.654Z,21.13
2019-02-22T07:38:13.723Z,21.13
2019-02-22T07:39:13.790Z,21.21
2019-02-22T07:40:13.797Z,21.20
2019-02-22T07:41:13.885Z,21.19
2019-02-22T07:42:13.924Z,21.17
2019-02-22T07:43:13.936Z,21.19
2019-02-22T07:44:13.987Z,21.20
2019-02-22T07:45:14.029Z,21.24
2019-02-22T07:46:14.067Z,21.26
2019-02-22T07:47:14.101Z,21.24
2019-02-22T07:48:14.176Z,21.23
2019-02-22T07:49:14.198Z,21.32
2019-02-22T07:50:14.246Z,21.26
2019-02-22T07:51:14.299Z,21.32
2019-02-22T07:52:14.345Z,21.39
2019-02-22T07:53:14.394Z,21.35
2019-02-22T07:54:14.441Z,21.36
2019-02-22T07:55:14.502Z,21.38
2019-02-22T07:56:14.577Z,21.29
2019-02-22T07:57:14.617Z,21.42
2019-02-22T07:58:14.682Z,21.41
2019-02-22T07:59:14.666Z,21.42
2019-02-22T08:00:14.738Z,21.46
2019-02-22T08:01:14.779Z,21.39
2019-02-22T08:02:14.825Z,21.45
2019-02-22T08:03:14.837Z,21.41
2019-02-22T08:04:14.917Z,21.45
2019-02-22T08:05:14.997Z,21.46
2019-02-22T08:06:15.001Z,21.53
2019-02-22T08:07:15.047Z,21.48
2019-02-22T08:08:15.080Z,21.60
2019-02-22T08:09:15.185Z,21.54
2019-02-22T08:10:15.242Z,21.53
2019-02-22T08:11:15.250Z,21.56
2019-02-22T08:12:15.259Z,21.56
2019-02-22T08:13:19.769Z,21.48
2019-02-22T08:14:15.371Z,21.50
2019-02-22T08:15:15.456Z,21.57
2019-02-22T08:16:15.467Z,21.50
2019-02-22T08:17:15.512Z,21.54
2019-02-22T08:18:15.561Z,21.51
2019-02-22T08:19:15.610Z,21.51
2019-02-22T08:20:15.639Z,21.57
2019-02-22T08:21:15.701Z,21.56
2019-02-22T08:22:15.755Z,21.48
2019-02-22T08:23:15.798Z,21.54
2019-02-22T08:24:15.867Z,21.51
2019-02-22T08:25:15.919Z,21.54
2019-02-22T08:26:15.990Z,21.54
2019-02-22T08:27:15.986Z,21.48
2019-02-22T08:28:16.053Z,21.48
2019-02-22T08:29:16.072Z,21.51
2019-02-22T08:30:16.124Z,21.54
2019-02-22T08:31:16.204Z,21.53
2019-02-22T08:32:16.206Z,21.51
2019-02-22T08:33:16.304Z,21.46
2019-02-22T08:34:16.317Z,21.53
2019-02-22T08:35:16.396Z,21.48
2019-02-22T08:36:16.412Z,21.54
2019-02-22T08:37:16.434Z,21.50
2019-02-22T08:38:16.491Z,21.48
2019-02-22T08:39:16.538Z,21.50
2019-02-22T08:40:16.555Z,21.45
2019-02-22T08:41:16.622Z,21.51
2019-02-22T08:42:16.659Z,21.44
2019-02-22T08:43:16.710Z,21.44
2019-02-22T08:44:16.741Z,21.45
2019-02-22T08:45:16.810Z,21.51
2019-02-22T08:46:16.832Z,21.34
2019-02-22T08:47:16.905Z,21.41
2019-02-22T08:48:16.958Z,21.44
2019-02-22T08:49:16.989Z,21.44
2019-02-22T08:50:17.038Z,21.34
2019-02-22T08:51:17.073Z,21.41
2019-02-22T08:52:17.116Z,21.41
2019-02-22T08:53:17.146Z,21.46
2019-02-22T08:54:17.206Z,21.38
2019-02-22T08:55:17.262Z,21.48
2019-02-22T08:56:17.302Z,21.46
2019-02-22T08:57:17.400Z,21.38
2019-02-22T08:58:17.415Z,21.48
2019-02-22T08:59:17.449Z,21.53
2019-02-22T09:00:17.476Z,21.48
2019-02-22T09:01:17.547Z,21.45
2019-02-22T09:02:17.583Z,21.48
2019-02-22T09:03:17.641Z,21.51
2019-02-22T09:04:17.676Z,21.51
2019-02-22T09:05:17.722Z,21.46
2019-02-22T09:06:17.766Z,21.56
2019-02-22T09:07:17.817Z,21.54
2019-02-22T09:08:17.840Z,21.53
2019-02-22T09:09:17.905Z,21.63
2019-02-22T09:10:17.965Z,21.72
2019-02-22T09:11:18.009Z,21.67
2019-02-22T09:12:18.123Z,21.57
2019-02-22T09:13:18.104Z,21.59
2019-02-22T09:14:18.117Z,21.57
2019-02-22T09:15:18.160Z,21.46
2019-02-22T09:16:18.239Z,21.57
2019-02-22T09:17:18.301Z,21.54
2019-02-22T09:18:18.405Z,21.57
2019-02-22T09:19:18.369Z,21.57
2019-02-22T09:20:18.417Z,21.56
2019-02-22T09:21:18.501Z,21.57
2019-02-22T09:22:22.804Z,21.59
2019-02-22T09:23:18.579Z,21.59
2019-02-22T09:24:18.582Z,21.51
2019-02-22T09:25:18.639Z,21.57
2019-02-22T09:26:18.690Z,21.60
2019-02-22T09:27:18.718Z,21.59
2019-02-22T09:28:18.796Z,21.59
2019-02-22T09:29:18.806Z,21.57
2019-02-22T09:30:18.901Z,21.57
2019-02-22T09:31:18.922Z,21.57
2019-02-22T09:32:18.982Z,21.66
2019-02-22T09:33:19.028Z,21.69
2019-02-22T09:34:19.060Z,21.71
2019-02-22T09:35:19.097Z,21.67
2019-02-22T09:36:19.153Z,21.64
2019-02-22T09:37:19.199Z,21.67
2019-02-22T09:38:19.241Z,21.72
2019-02-22T09:39:19.281Z,21.71
2019-02-22T09:40:19.319Z,21.79
2019-02-22T09:41:19.407Z,21.79
2019-02-22T09:42:19.438Z,21.75
2019-02-22T09:43:19.474Z,21.75
2019-02-22T09:44:19.522Z,21.82
2019-02-22T09:45:19.569Z,21.83
2019-02-22T09:46:19.612Z,21.85
2019-02-22T09:47:19.664Z,21.76
2019-02-22T09:48:19.701Z,21.76
2019-02-22T09:49:19.757Z,21.82
2019-02-22T09:50:19.791Z,21.74
2019-02-22T09:51:19.837Z,21.76
2019-02-22T09:52:19.874Z,21.71
2019-02-22T09:53:19.926Z,21.82
2019-02-22T09:54:19.957Z,21.82
2019-02-22T09:55:20.025Z,21.88
2019-02-22T09:56:20.069Z,21.95
2019-02-22T09:57:20.123Z,22.02
2019-02-22T09:58:20.156Z,22.14
2019-02-22T09:59:20.242Z,22.19
2019-02-22T10:00:20.269Z,22.14
2019-02-22T10:01:20.344Z,22.25
2019-02-22T10:02:20.357Z,22.14
2019-02-22T10:03:20.397Z,22.16
2019-02-22T10:04:20.493Z,22.23
2019-02-22T10:05:20.529Z,22.25
2019-02-22T10:06:20.586Z,22.14
2019-02-22T10:07:20.583Z,22.39
2019-02-22T10:08:20.630Z,22.57
2019-02-22T10:09:20.666Z,22.59
2019-02-22T10:10:20.773Z,22.59
2019-02-22T10:11:20.810Z,22.67
2019-02-22T10:12:20.796Z,22.82
2019-02-22T10:13:20.873Z,22.86
2019-02-22T10:14:20.922Z,23.12
2019-02-22T10:15:20.957Z,23.08
2019-02-22T10:16:21.008Z,22.93
2019-02-22T10:17:21.039Z,22.89
2019-02-22T10:18:21.084Z,22.96
2019-02-22T10:19:21.121Z,22.99
2019-02-22T10:20:21.188Z,23.05
2019-02-22T10:21:21.224Z,23.27
2019-02-22T10:22:21.274Z,23.57
2019-02-22T10:23:21.305Z,23.75
2019-02-22T10:24:21.384Z,23.70
2019-02-22T10:25:21.431Z,23.49
2019-02-22T10:26:21.627Z,23.68
2019-02-22T10:27:21.534Z,23.79
2019-02-22T10:28:21.560Z,23.95
2019-02-22T10:29:21.612Z,24.14
2019-02-22T10:30:21.659Z,24.61
2019-02-22T10:31:21.718Z,25.07
2019-02-22T10:32:21.765Z,25.56
2019-02-22T10:33:22.016Z,25.79
2019-02-22T10:34:21.902Z,26.65
2019-02-22T10:35:21.916Z,27.28
2019-02-22T10:36:21.954Z,27.24
2019-02-22T10:37:21.997Z,28.25
2019-02-22T10:38:22.071Z,29.20
2019-02-22T10:39:22.098Z,29.82
2019-02-22T10:40:22.192Z,30.16
2019-02-22T10:41:22.216Z,30.38
2019-02-22T10:42:22.267Z,30.37
2019-02-22T10:43:22.315Z,30.61
2019-02-22T10:44:22.355Z,30.46
2019-02-22T10:45:22.430Z,30.46
2019-02-22T10:46:22.642Z,30.11
2019-02-22T10:47:22.528Z,29.56
2019-02-22T10:48:22.579Z,29.62
2019-02-22T10:49:22.612Z,29.50
2019-02-22T10:50:22.675Z,29.37
2019-02-22T10:51:22.727Z,29.49
2019-02-22T10:52:22.785Z,29.79
2019-02-22T10:53:22.837Z,29.86
2019-02-22T10:54:22.893Z,29.92
2019-02-22T10:55:22.958Z,30.14
2019-02-22T10:56:22.992Z,30.36
2019-02-22T10:57:23.052Z,30.78
2019-02-22T10:58:23.090Z,31.01
2019-02-22T10:59:23.142Z,31.24
2019-02-22T11:00:23.203Z,31.31
2019-02-22T11:01:23.249Z,31.84
2019-02-22T11:02:23.319Z,31.55
2019-02-22T11:03:23.373Z,31.20
2019-02-22T11:04:23.415Z,31.11
2019-02-22T11:05:23.488Z,30.54
2019-02-22T11:06:23.525Z,30.08
2019-02-22T11:07:23.646Z,29.96
2019-02-22T11:08:23.652Z,30.49
2019-02-22T11:09:23.681Z,30.43
2019-02-22T11:10:23.771Z,30.37
2019-02-22T11:11:23.830Z,30.36
2019-02-22T11:12:23.851Z,30.62
2019-02-22T11:13:23.905Z,31.28
2019-02-22T11:14:29.236Z,32.06
2019-02-22T11:15:24.013Z,32.11
2019-02-22T11:16:24.088Z,31.53
2019-02-22T11:17:24.161Z,31.01
2019-02-22T11:18:24.189Z,30.46
2019-02-22T11:19:24.260Z,29.65
2019-02-22T11:20:24.304Z,29.37
2019-02-22T11:21:24.361Z,30.12
2019-02-22T11:22:24.413Z,29.97
2019-02-22T11:23:24.455Z,29.84
2019-02-22T11:24:24.498Z,29.96
2019-02-22T11:25:24.569Z,30.08
2019-02-22T11:26:24.655Z,29.92
2019-02-22T11:27:24.669Z,30.71
2019-02-22T11:28:24.735Z,31.62
2019-02-22T11:29:24.787Z,32.62
2019-02-22T11:30:24.833Z,32.81
2019-02-22T11:31:24.905Z,33.39
2019-02-22T11:32:24.957Z,33.78
2019-02-22T11:33:25.005Z,34.14
2019-02-22T11:34:25.069Z,34.09
2019-02-22T11:35:25.136Z,33.80
2019-02-22T11:36:25.173Z,33.73
2019-02-22T11:37:25.239Z,34.41
2019-02-22T11:38:25.285Z,33.92
2019-02-22T11:39:25.360Z,33.51
2019-02-22T11:40:25.395Z,33.01
2019-02-22T11:41:25.503Z,32.88
2019-02-22T11:42:25.573Z,32.69
2019-02-22T11:43:25.568Z,31.62
2019-02-22T11:44:25.649Z,30.98
2019-02-22T11:45:25.674Z,31.21
2019-02-22T11:46:25.760Z,31.85
2019-02-22T11:47:25.809Z,33.20
2019-02-22T11:48:25.864Z,33.90
2019-02-22T11:49:25.922Z,33.33
2019-02-22T11:50:25.964Z,32.42
2019-02-22T11:51:26.037Z,32.22
2019-02-22T11:52:26.102Z,32.25
2019-02-22T11:53:26.121Z,32.33
2019-02-22T11:54:26.181Z,32.49
2019-02-22T11:55:26.254Z,32.55
2019-02-22T11:56:26.364Z,32.84
2019-02-22T11:57:26.395Z,33.20
2019-02-22T11:58:26.426Z,32.77
2019-02-22T11:59:26.508Z,31.85
2019-02-22T12:00:26.528Z,31.98
2019-02-22T12:01:26.598Z,31.58
2019-02-22T12:02:26.677Z,31.43
2019-02-22T12:03:26.689Z,31.27
2019-02-22T12:04:26.783Z,31.04
2019-02-22T12:05:26.833Z,30.52
2019-02-22T12:06:26.893Z,29.89
2019-02-22T12:07:26.940Z,29.10
2019-02-22T12:08:26.995Z,28.85
2019-02-22T12:09:27.073Z,28.77
2019-02-22T12:10:27.103Z,28.58
2019-02-22T12:11:27.173Z,28.63
2019-02-22T12:12:27.243Z,28.90
2019-02-22T12:13:27.277Z,29.62
2019-02-22T12:14:27.303Z,30.62
2019-02-22T12:15:27.418Z,31.46
2019-02-22T12:16:27.442Z,32.20
2019-02-22T12:17:27.487Z,32.18
2019-02-22T12:18:27.532Z,31.96
2019-02-22T12:19:27.603Z,31.09
2019-02-22T12:20:27.706Z,30.67
2019-02-22T12:21:27.721Z,30.33
2019-02-22T12:22:27.758Z,30.29
2019-02-22T12:23:27.853Z,30.49
2019-02-22T12:24:27.854Z,30.65
2019-02-22T12:25:27.974Z,30.59
2019-02-22T12:26:27.997Z,30.47
2019-02-22T12:27:28.047Z,30.50
2019-02-22T12:28:28.101Z,30.43
2019-02-22T12:29:28.159Z,29.82
2019-02-22T12:30:28.247Z,29.65
2019-02-22T12:31:28.269Z,29.28
2019-02-22T12:32:28.324Z,29.47
2019-02-22T12:33:28.378Z,29.60
2019-02-22T12:34:28.421Z,29.68
2019-02-22T12:35:28.460Z,29.86
2019-02-22T12:36:28.534Z,29.87
2019-02-22T12:37:28.594Z,29.84
2019-02-22T12:38:28.664Z,29.94
2019-02-22T12:39:28.708Z,30.24
2019-02-22T12:40:28.755Z,30.61
2019-02-22T12:41:28.852Z,30.80
2019-02-22T12:42:28.855Z,30.96
2019-02-22T12:43:28.908Z,30.64
2019-02-22T12:44:28.984Z,30.54
2019-02-22T12:45:29.041Z,30.61
2019-02-22T12:46:29.089Z,30.57
2019-02-22T12:47:29.131Z,30.67
2019-02-22T12:48:29.188Z,30.38
2019-02-22T12:49:29.235Z,30.62
2019-02-22T12:50:29.332Z,31.49
2019-02-22T12:51:29.357Z,32.47
2019-02-22T12:52:29.400Z,33.82
2019-02-22T12:53:29.495Z,35.08